Lamont, FL (32336)

5:24 PM EST on February 05, 2016 (GMT -0500)
Jefferson County Middle/High School WeatherSTEM | | Change Station
CLOSE
Current Station
Personal Weather Station
Location: Monticello, FL
Elevation: 167 ft
Nearby Weather Stations
Active Advisory: Freeze Warning

Elev 167 ft 30.49 °N, 83.88 °W | Updated 12 minutes ago

Clear
Clear
54.0 °F
Feels Like 54.0 °F
N
2.0
Wind Variable Wind from NNE
Gusts 9.0 mph

Today
High -- | Low -- °F
--% Chance of Precip.
Yesterday
High -- | Low -- °F
Precip. -- in
Pressure 30.30 in
Visibility 10.0 miles
Clouds Clear
Dew Point 25 °F
Humidity 32%
Rainfall 0.00 in
Snow Depth Not available.
7:24 AM 6:15 PM
Waning Crescent, 9% visible
METAR KTLH 052153Z 03007KT 10SM CLR 14/M09 A3030 RMK AO2 SLP260 T01391089
Pressure 30.30 in
Visibility 10.0 miles
Clouds Clear
Dew Point 25 °F
Humidity 32%
Rainfall 0.00 in
Snow Depth Not available.
7:24 AM 6:15 PM
Waning Crescent, 9% visible
METAR KTLH 052153Z 03007KT 10SM CLR 14/M09 A3030 RMK AO2 SLP260 T01391089

10-Day Weather Forecast

Almanac

Astronomy

Feb. 05, 2016 Rise Set
Actual Time
Civil Twilight
Nautical Twilight
Astronomical Twilight
Moon
Length of Visible Light
Length of Day
Tomorrow will be .
, % of the Moon is Illuminated

Today's Extremes

State Highs State Lows

Community

WunderPhotos

Upload Photos

1,890,878 photos uploaded!

WunderBlog® & News

Nearby

Air Quality

  Air Quality AQ Index Pollutant
Not available.

Snow Depth

Station Depth Elevation

Earthquake Activity

City Distance Mag. Time & Date
Minimum magnitude displayed is 2.5.

Coastal Water Temperatures

Place Temperature

Stations

Nearby Weather Stations

Station Location Temp. Windchill Dew Point Humidity Wind Precip. Elev Updated Type
                   

Watches & Warnings

Freeze Warning
Issued: 2:36 PM CST Feb. 5, 2016 – National Weather Service

... Freeze warning in effect from 1 am EST /midnight CST/ to 8 am
EST /7 am CST/ Saturday...

The National Weather Service in Tallahassee has issued a freeze
warning... which is in effect from 1 am EST /midnight CST/ to 8 am
EST /7 am CST/ Saturday.

* Temperature... 29 to 32 degrees.

* Duration... 2 to 5 hours.

Precautionary/preparedness actions...

A freeze warning means sub-freezing temperatures are imminent or
highly likely. These conditions will kill crops and other
sensitive vegetation.



Barry